Archival Weather

Chicago O'Hare International

Chicago, Illinois (KORD)

Report from: Saturday, August 6, 2022 11:51 AM CDT
Current time: Thursday, August 18, 2022 11:40 PM CDT

Current weather
Weather history
Weather forecast

Temperature31.1°C (88.0°F)
Heat index34.4°C (94.0°F)
Dew point21.7°C (71.1°F)
Winds 5 kts (2.6 m/s, 5.8 mph) South-Southwest (210°)
Visibility10 mi. (16.1 km)
Clouds Ceiling: Broken clouds 3,500 ft. (1,067 m)
Broken clouds 25,000 ft. (7,620 m)
Altimeter30.07 in.Hg (1018 mB)
Relative humidity57 %
Density altitude2,022 ft. (616 m)
Sea-level pressure101.8 kPa (1018 mB, 30.05 in.Hg)
Remarks Automated weather observing station with precipitation discriminator
Flight conditions Visual Meteorological Conditions
Raw dataKORD 061651Z 21005KT 10SM BKN035 BKN250 31/22 A3007 RMK AO2 SLP177 T03110217
An unhandled exception has occurred. See browser dev tools for details. Reload 🗙